Time;durP1;ratioP1;P1;durP2;ratioP2;P2;SDS_P1;SDS_P2;PMS_P1;PMS_P2;Temp;Humidity;BMP_temperature;BMP_pressure;BME280_temperature;BME280_humidity;BME280_pressure;Samples;Min_cycle;Max_cycle;Signal;HPM_P1;HPM_P2
2022/07/02 00:02:03;;;;;;;2.40;2.05;;;;;;;;;;5080947;28;20734;-74
2022/07/02 00:04:32;;;;;;;3.10;1.80;;;;;;;;;;5082597;28;20429;-74
2022/07/02 00:06:59;;;;;;;3.33;1.90;;;;;;;;;;5063290;28;20526;-74
2022/07/02 00:09:27;;;;;;;3.97;2.10;;;;;;;;;;5064444;28;20407;-74
2022/07/02 00:11:57;;;;;;;3.10;2.10;;;;;;;;;;5063206;28;20501;-72
2022/07/02 00:14:25;;;;;;;3.07;1.87;;;;;;;;;;5063830;28;20408;-74
2022/07/02 00:16:53;;;;;;;2.50;2.10;;;;;;;;;;5063921;28;20416;-74
2022/07/02 00:19:20;;;;;;;2.57;1.87;;;;;;;;;;5067674;28;20435;-75
2022/07/02 00:21:47;;;;;;;2.50;1.88;;;;;;;;;;5062695;28;21034;-74
2022/07/02 00:24:14;;;;;;;2.75;2.10;;;;;;;;;;5066402;28;20791;-72
2022/07/02 00:26:47;;;;;;;2.00;1.80;;;;;;;;;;5067730;28;20422;-74
2022/07/02 00:29:18;;;;;;;2.50;2.10;;;;;;;;;;5067623;28;20415;-74
2022/07/02 00:31:45;;;;;;;3.10;2.03;;;;;;;;;;5082843;28;20493;-74
2022/07/02 00:34:13;;;;;;;3.35;1.98;;;;;;;;;;5085801;28;20444;-74
2022/07/02 00:36:40;;;;;;;2.70;1.90;;;;;;;;;;5087384;28;20513;-74
2022/07/02 00:39:08;;;;;;;2.25;1.80;;;;;;;;;;5087825;28;20516;-73
2022/07/02 00:41:35;;;;;;;4.65;2.10;;;;;;;;;;5086550;28;20841;-74
2022/07/02 00:44:02;;;;;;;2.67;2.10;;;;;;;;;;5087378;28;20441;-74
2022/07/02 00:46:31;;;;;;;2.47;2.08;;;;;;;;;;5086330;28;20879;-74
2022/07/02 00:48:59;;;;;;;2.20;2.00;;;;;;;;;;5109748;22;20553;-71
2022/07/02 00:51:26;;;;;;;2.83;2.10;;;;;;;;;;5085027;28;20447;-72
2022/07/02 00:53:54;;;;;;;2.92;2.10;;;;;;;;;;5092751;28;20896;-71
2022/07/02 00:56:21;;;;;;;2.95;2.03;;;;;;;;;;5094333;28;20425;-72
2022/07/02 00:58:49;;;;;;;4.22;2.50;;;;;;;;;;5093222;28;20409;-73
2022/07/02 01:01:16;;;;;;;2.80;2.00;;;;;;;;;;5093156;28;20413;-72
2022/07/02 01:03:46;;;;;;;2.97;2.60;;;;;;;;;;5091136;28;20429;-72
2022/07/02 01:06:15;;;;;;;3.60;2.40;;;;;;;;;;5092125;28;20489;-72
2022/07/02 01:11:27;;;;;;;3.10;2.38;;;;;;;;;;5091979;28;20440;-71
2022/07/02 01:13:55;;;;;;;2.50;2.30;;;;;;;;;;5092542;28;20412;-72
2022/07/02 01:16:22;;;;;;;3.90;2.00;;;;;;;;;;5091069;28;20429;-73
2022/07/02 01:18:51;;;;;;;3.28;2.33;;;;;;;;;;5081286;28;20416;-72
2022/07/02 01:21:18;;;;;;;3.50;2.20;;;;;;;;;;5071513;28;20447;-72
2022/07/02 01:23:46;;;;;;;2.60;2.30;;;;;;;;;;5080202;28;20456;-72
2022/07/02 01:26:13;;;;;;;3.67;2.50;;;;;;;;;;5086492;28;20418;-72
2022/07/02 01:28:41;;;;;;;3.60;2.80;;;;;;;;;;5092382;28;20416;-73
2022/07/02 01:31:08;;;;;;;3.50;2.60;;;;;;;;;;5091585;28;20893;-73
2022/07/02 01:33:35;;;;;;;3.00;2.40;;;;;;;;;;5090051;28;20426;-73
2022/07/02 01:36:02;;;;;;;4.00;2.38;;;;;;;;;;5079139;28;20903;-72
2022/07/02 01:38:29;;;;;;;2.80;2.60;;;;;;;;;;5071831;28;20426;-72
2022/07/02 01:41:38;;;;;;;3.97;2.50;;;;;;;;;;5070970;28;20496;-72
2022/07/02 01:43:45;;;;;;;4.10;2.92;;;;;;;;;;5071111;28;20432;-72
2022/07/02 01:46:12;;;;;;;6.38;3.70;;;;;;;;;;5071369;28;20422;-72
2022/07/02 01:48:39;;;;;;;4.00;3.60;;;;;;;;;;5084830;28;20444;-72
2022/07/02 01:51:06;;;;;;;4.07;3.70;;;;;;;;;;5090766;28;20425;-72
2022/07/02 01:53:33;;;;;;;4.33;3.17;;;;;;;;;;5091315;28;20500;-71
2022/07/02 01:56:02;;;;;;;3.80;3.50;;;;;;;;;;5091334;28;20433;-72
2022/07/02 01:58:29;;;;;;;3.70;3.40;;;;;;;;;;5091233;28;20409;-71
2022/07/02 02:00:56;;;;;;;4.20;3.40;;;;;;;;;;5090445;28;20995;-73
2022/07/02 02:03:23;;;;;;;4.30;3.70;;;;;;;;;;5078466;28;20431;-73
2022/07/02 02:05:53;;;;;;;4.70;3.10;;;;;;;;;;5089723;28;20417;-74
2022/07/02 02:08:20;;;;;;;4.10;3.40;;;;;;;;;;5090439;28;20964;-73
2022/07/02 02:10:47;;;;;;;3.60;3.30;;;;;;;;;;5090254;28;20781;-73
2022/07/02 02:13:15;;;;;;;3.40;3.10;;;;;;;;;;5090857;28;20841;-73
2022/07/02 02:15:42;;;;;;;3.85;2.90;;;;;;;;;;5089743;28;20422;-73
2022/07/02 02:18:09;;;;;;;2.97;2.67;;;;;;;;;;5089647;28;20430;-73
2022/07/02 02:20:38;;;;;;;2.78;2.50;;;;;;;;;;5090543;28;20409;-73
2022/07/02 02:23:05;;;;;;;3.38;2.80;;;;;;;;;;5090426;28;20430;-73
2022/07/02 02:25:33;;;;;;;3.63;2.70;;;;;;;;;;5091123;28;20477;-73
2022/07/02 02:28:00;;;;;;;2.80;2.60;;;;;;;;;;5090370;28;20422;-72
2022/07/02 02:30:29;;;;;;;3.90;2.60;;;;;;;;;;5089988;28;20430;-73
2022/07/02 02:32:57;;;;;;;3.47;2.77;;;;;;;;;;5083167;28;20409;-73
2022/07/02 02:35:24;;;;;;;3.80;2.70;;;;;;;;;;5092144;28;20414;-73
2022/07/02 02:37:51;;;;;;;3.30;2.80;;;;;;;;;;5091768;28;20409;-73
2022/07/02 02:40:18;;;;;;;4.25;3.10;;;;;;;;;;5090512;28;20883;-73
2022/07/02 02:42:45;;;;;;;3.42;3.00;;;;;;;;;;5090030;28;20432;-73
2022/07/02 02:45:12;;;;;;;3.83;3.10;;;;;;;;;;5089062;28;20461;-72
2022/07/02 02:47:41;;;;;;;3.63;3.33;;;;;;;;;;5080637;28;20427;-72
2022/07/02 02:50:08;;;;;;;3.80;3.50;;;;;;;;;;5087976;28;20418;-72
2022/07/02 02:52:35;;;;;;;3.20;2.97;;;;;;;;;;5072394;28;20415;-72
2022/07/02 02:55:02;;;;;;;3.80;3.40;;;;;;;;;;5069447;28;20419;-72
2022/07/02 02:57:30;;;;;;;4.18;3.47;;;;;;;;;;5070499;28;20494;-71
2022/07/02 02:59:57;;;;;;;5.45;3.70;;;;;;;;;;5093082;28;20423;-71
2022/07/02 03:02:24;;;;;;;3.40;3.10;;;;;;;;;;5091747;28;20490;-71
2022/07/02 03:04:53;;;;;;;3.83;3.20;;;;;;;;;;5078242;28;20902;-71
2022/07/02 03:07:20;;;;;;;3.50;3.20;;;;;;;;;;5070044;28;20502;-72
2022/07/02 03:09:47;;;;;;;4.28;3.50;;;;;;;;;;5070168;28;20424;-72
2022/07/02 03:12:14;;;;;;;6.35;3.25;;;;;;;;;;5069901;28;20411;-72
2022/07/02 03:14:41;;;;;;;3.60;3.30;;;;;;;;;;5084440;28;20430;-71
2022/07/02 03:17:08;;;;;;;3.40;3.10;;;;;;;;;;5083539;28;20420;-71
2022/07/02 03:19:35;;;;;;;3.87;3.40;;;;;;;;;;5072150;28;20416;-71
2022/07/02 03:22:04;;;;;;;3.40;3.00;;;;;;;;;;5068660;28;20891;-72
2022/07/02 03:24:31;;;;;;;3.50;2.90;;;;;;;;;;5068862;28;20427;-72
2022/07/02 03:26:58;;;;;;;3.35;2.88;;;;;;;;;;5069893;28;20418;-72
2022/07/02 03:29:25;;;;;;;3.03;2.83;;;;;;;;;;5089063;28;20410;-72
2022/07/02 03:31:52;;;;;;;3.13;2.83;;;;;;;;;;5086399;28;20815;-73
2022/07/02 03:34:19;;;;;;;3.90;3.00;;;;;;;;;;5089485;28;20524;-72
2022/07/02 03:36:47;;;;;;;3.70;3.00;;;;;;;;;;5089474;28;20485;-73
2022/07/02 03:39:15;;;;;;;3.60;3.30;;;;;;;;;;5089654;28;20820;-73
2022/07/02 03:41:42;;;;;;;4.65;2.90;;;;;;;;;;5088264;28;20438;-72
2022/07/02 03:44:09;;;;;;;3.35;3.05;;;;;;;;;;5084901;28;20435;-72
2022/07/02 03:46:36;;;;;;;3.22;2.90;;;;;;;;;;5070314;28;20415;-72
2022/07/02 03:49:03;;;;;;;4.10;3.10;;;;;;;;;;5072464;28;20420;-72
2022/07/02 03:51:30;;;;;;;3.30;3.00;;;;;;;;;;5070173;28;20419;-73
2022/07/02 03:53:57;;;;;;;3.97;3.58;;;;;;;;;;5069399;28;20423;-73
2022/07/02 03:56:26;;;;;;;3.75;3.20;;;;;;;;;;5077655;28;20426;-73
2022/07/02 03:58:53;;;;;;;3.88;3.33;;;;;;;;;;5069092;28;20514;-73
2022/07/02 04:01:20;;;;;;;3.40;3.10;;;;;;;;;;5079122;28;20933;-73
2022/07/02 04:03:47;;;;;;;3.70;3.40;;;;;;;;;;5078524;28;20435;-73
2022/07/02 04:06:14;;;;;;;3.67;3.28;;;;;;;;;;5069017;28;20408;-72
2022/07/02 04:08:41;;;;;;;3.40;3.20;;;;;;;;;;5069214;28;20418;-73
2022/07/02 04:11:08;;;;;;;4.15;3.42;;;;;;;;;;5068553;28;20408;-73
2022/07/02 04:13:37;;;;;;;3.30;3.00;;;;;;;;;;5086113;28;20796;-72
2022/07/02 04:16:04;;;;;;;3.55;3.30;;;;;;;;;;5089741;28;20424;-73
2022/07/02 04:18:31;;;;;;;3.33;3.03;;;;;;;;;;5089268;28;20506;-73
2022/07/02 04:20:58;;;;;;;3.70;3.40;;;;;;;;;;5091972;28;20774;-72
2022/07/02 04:23:25;;;;;;;3.70;2.85;;;;;;;;;;5100517;28;20440;-70
2022/07/02 04:25:52;;;;;;;3.50;2.90;;;;;;;;;;5094069;28;20418;-71
2022/07/02 04:28:19;;;;;;;3.00;2.70;;;;;;;;;;5106525;28;20481;-72
2022/07/02 04:30:48;;;;;;;3.10;2.90;;;;;;;;;;5089917;28;20406;-72
2022/07/02 04:33:15;;;;;;;3.00;2.80;;;;;;;;;;5090036;28;20405;-72
2022/07/02 04:35:42;;;;;;;3.28;2.90;;;;;;;;;;5090254;28;20426;-70
2022/07/02 04:38:10;;;;;;;3.22;2.70;;;;;;;;;;5088259;28;20966;-72
2022/07/02 04:40:37;;;;;;;3.80;2.90;;;;;;;;;;5080453;28;20422;-72
2022/07/02 04:43:04;;;;;;;3.35;3.03;;;;;;;;;;5089432;28;20409;-72
2022/07/02 04:45:31;;;;;;;4.13;3.33;;;;;;;;;;5089767;28;20771;-73
2022/07/02 04:47:59;;;;;;;3.30;3.00;;;;;;;;;;5088599;28;20789;-73
2022/07/02 04:50:27;;;;;;;3.92;3.50;;;;;;;;;;5089065;28;20414;-72
2022/07/02 04:52:54;;;;;;;4.35;3.00;;;;;;;;;;5075954;28;20445;-73
2022/07/02 04:55:21;;;;;;;4.63;3.10;;;;;;;;;;5083347;28;20417;-73
2022/07/02 04:57:48;;;;;;;3.50;3.20;;;;;;;;;;5088186;28;20496;-74
2022/07/02 05:00:15;;;;;;;3.33;2.88;;;;;;;;;;5088128;28;20413;-72
2022/07/02 05:02:42;;;;;;;3.30;2.80;;;;;;;;;;5088374;28;20410;-73
2022/07/02 05:05:11;;;;;;;3.10;2.80;;;;;;;;;;5087122;28;20988;-73
2022/07/02 05:07:38;;;;;;;3.15;2.72;;;;;;;;;;5084847;28;20422;-73
2022/07/02 05:10:05;;;;;;;2.80;2.60;;;;;;;;;;5085982;28;20445;-73
2022/07/02 05:12:33;;;;;;;3.95;3.10;;;;;;;;;;5090160;28;20490;-73
2022/07/02 05:15:00;;;;;;;3.55;2.75;;;;;;;;;;5086254;28;20434;-73
2022/07/02 05:17:27;;;;;;;2.95;2.70;;;;;;;;;;5091975;28;20421;-73
2022/07/02 05:19:54;;;;;;;3.20;2.90;;;;;;;;;;5087722;28;20440;-73
2022/07/02 05:22:22;;;;;;;3.13;2.70;;;;;;;;;;5091262;28;20430;-73
2022/07/02 05:24:49;;;;;;;2.88;2.50;;;;;;;;;;5096713;28;20426;-73
2022/07/02 05:27:16;;;;;;;4.18;2.60;;;;;;;;;;5095234;28;20429;-73
2022/07/02 05:29:43;;;;;;;8.60;2.80;;;;;;;;;;5093482;28;20415;-73
2022/07/02 05:32:10;;;;;;;3.50;2.88;;;;;;;;;;5092017;28;20433;-72
2022/07/02 05:34:38;;;;;;;4.03;2.50;;;;;;;;;;5090790;28;20452;-72
2022/07/02 05:37:05;;;;;;;3.80;2.70;;;;;;;;;;5089662;28;20421;-72
2022/07/02 05:39:33;;;;;;;2.97;2.78;;;;;;;;;;5107542;28;20390;-73
2022/07/02 05:42:00;;;;;;;3.40;2.70;;;;;;;;;;5096066;28;20436;-72
2022/07/02 05:44:27;;;;;;;3.00;2.60;;;;;;;;;;5098835;28;20425;-72
2022/07/02 05:46:55;;;;;;;2.83;2.60;;;;;;;;;;5099811;28;20413;-71
2022/07/02 05:49:22;;;;;;;3.20;2.42;;;;;;;;;;5101297;28;20507;-72
2022/07/02 05:51:49;;;;;;;3.50;2.70;;;;;;;;;;5101198;28;20414;-73
2022/07/02 05:54:16;;;;;;;2.63;2.40;;;;;;;;;;5099800;28;20410;-72
2022/07/02 05:56:44;;;;;;;4.22;2.58;;;;;;;;;;5080154;28;20441;-71
2022/07/02 05:59:11;;;;;;;4.32;2.20;;;;;;;;;;5103732;28;20421;-71
2022/07/02 06:01:38;;;;;;;2.88;2.58;;;;;;;;;;5104298;28;20414;-72
2022/07/02 06:04:06;;;;;;;3.15;2.55;;;;;;;;;;5094862;28;20913;-73
2022/07/02 06:09:17;;;;;;;2.40;2.20;;;;;;;;;;5096714;28;20393;-72
2022/07/02 06:11:46;;;;;;;2.28;2.08;;;;;;;;;;5097403;28;20425;-74
2022/07/02 06:14:13;;;;;;;3.28;2.60;;;;;;;;;;5096649;28;20417;-72
2022/07/02 06:16:40;;;;;;;2.50;2.30;;;;;;;;;;5098446;28;20441;-71
2022/07/02 06:19:07;;;;;;;2.92;2.10;;;;;;;;;;5095029;28;20437;-72
2022/07/02 06:21:34;;;;;;;2.80;2.40;;;;;;;;;;5090730;28;20584;-73
2022/07/02 06:24:02;;;;;;;3.67;2.10;;;;;;;;;;5091327;28;20932;-73
2022/07/02 06:26:29;;;;;;;2.97;2.10;;;;;;;;;;5091708;28;20468;-72
2022/07/02 06:28:57;;;;;;;3.00;2.05;;;;;;;;;;5091529;28;20410;-72
2022/07/02 06:31:24;;;;;;;2.30;2.10;;;;;;;;;;5077850;28;20410;-73
2022/07/02 06:33:51;;;;;;;2.88;2.00;;;;;;;;;;5090730;28;20949;-74
2022/07/02 06:36:21;;;;;;;2.42;2.13;;;;;;;;;;5104460;28;20414;-72
2022/07/02 06:38:49;;;;;;;4.07;1.85;;;;;;;;;;5114750;28;20481;-71
2022/07/02 06:42:18;;;;;;;2.08;1.88;;;;;;;;;;5109098;28;20424;-72
2022/07/02 06:44:06;;;;;;;2.45;1.95;;;;;;;;;;5093410;28;20452;-73
2022/07/02 06:46:33;;;;;;;1.60;1.50;;;;;;;;;;5092385;28;20414;-73
2022/07/02 06:49:00;;;;;;;2.90;1.90;;;;;;;;;;5100400;22;20441;-79
2022/07/02 06:51:27;;;;;;;1.67;1.58;;;;;;;;;;5063218;28;20970;-79
2022/07/02 06:54:00;;;;;;;2.60;1.70;;;;;;;;;;5063714;28;20423;-79
2022/07/02 06:56:27;;;;;;;2.10;1.50;;;;;;;;;;5063818;28;20626;-79
2022/07/02 06:58:54;;;;;;;1.70;1.60;;;;;;;;;;5065014;28;20446;-78
2022/07/02 07:01:22;;;;;;;2.60;1.70;;;;;;;;;;5067986;28;20446;-79
2022/07/02 07:03:49;;;;;;;1.60;1.50;;;;;;;;;;5067230;28;20419;-79
2022/07/02 07:06:17;;;;;;;2.88;1.60;;;;;;;;;;5068167;28;20775;-78
2022/07/02 07:08:44;;;;;;;2.45;1.50;;;;;;;;;;5065903;28;20458;-75
2022/07/02 07:11:11;;;;;;;1.90;1.20;;;;;;;;;;5056744;28;20486;-78
2022/07/02 07:13:38;;;;;;;2.30;1.20;;;;;;;;;;5056185;28;20416;-78
2022/07/02 07:16:05;;;;;;;2.15;1.02;;;;;;;;;;5069407;28;20883;-79
2022/07/02 07:18:34;;;;;;;2.28;1.20;;;;;;;;;;5063301;28;20434;-78
2022/07/02 07:21:01;;;;;;;3.53;1.40;;;;;;;;;;5049056;28;20693;-79
2022/07/02 07:23:28;;;;;;;1.45;0.90;;;;;;;;;;5051623;28;20428;-77
2022/07/02 07:25:55;;;;;;;2.00;1.10;;;;;;;;;;5045608;28;20437;-79
2022/07/02 07:28:26;;;;;;;2.38;1.00;;;;;;;;;;5043996;28;20437;-76
2022/07/02 07:30:53;;;;;;;2.60;1.00;;;;;;;;;;5042779;28;20515;-79
2022/07/02 07:33:21;;;;;;;3.50;1.00;;;;;;;;;;5045462;28;20519;-79
2022/07/02 07:35:49;;;;;;;2.10;1.10;;;;;;;;;;5046206;28;20413;-78
2022/07/02 07:38:16;;;;;;;3.20;1.10;;;;;;;;;;5045365;28;20425;-76
2022/07/02 07:40:43;;;;;;;1.80;0.90;;;;;;;;;;5045260;28;20423;-78
2022/07/02 07:43:10;;;;;;;1.75;1.05;;;;;;;;;;5044966;28;20490;-78
2022/07/02 07:45:38;;;;;;;2.08;1.20;;;;;;;;;;5045734;28;20441;-78
2022/07/02 07:48:05;;;;;;;3.15;1.00;;;;;;;;;;5044956;28;20886;-76
2022/07/02 07:50:32;;;;;;;1.67;0.90;;;;;;;;;;5044847;28;20500;-78
2022/07/02 07:53:00;;;;;;;1.15;0.70;;;;;;;;;;5044261;28;20796;-78
2022/07/02 07:55:27;;;;;;;1.70;1.00;;;;;;;;;;5044420;28;20421;-76
2022/07/02 07:57:55;;;;;;;2.65;0.80;;;;;;;;;;5044653;28;20454;-76
2022/07/02 08:00:22;;;;;;;1.83;1.00;;;;;;;;;;5043215;28;20745;-77
2022/07/02 08:02:49;;;;;;;2.38;0.80;;;;;;;;;;5045485;28;20460;-77
2022/07/02 08:05:16;;;;;;;1.40;0.80;;;;;;;;;;5044684;28;20928;-76
2022/07/02 08:07:45;;;;;;;3.15;1.00;;;;;;;;;;5041119;28;21478;-79
2022/07/02 08:10:13;;;;;;;1.50;0.80;;;;;;;;;;5042579;28;20532;-79
2022/07/02 08:12:41;;;;;;;1.85;1.00;;;;;;;;;;5048027;28;20424;-78
2022/07/02 08:15:08;;;;;;;1.33;0.80;;;;;;;;;;5050314;28;20450;-77
2022/07/02 08:17:36;;;;;;;2.47;1.00;;;;;;;;;;5046479;28;20773;-77
2022/07/02 08:20:04;;;;;;;1.30;0.70;;;;;;;;;;5046945;28;20441;-79
2022/07/02 08:22:31;;;;;;;2.20;0.70;;;;;;;;;;5052067;28;20616;-79
2022/07/02 08:24:58;;;;;;;1.50;0.70;;;;;;;;;;5039214;28;20436;-77
2022/07/02 08:27:27;;;;;;;2.10;0.70;;;;;;;;;;5045478;28;20429;-77
2022/07/02 08:29:54;;;;;;;1.05;0.60;;;;;;;;;;5044559;28;20443;-79
2022/07/02 08:32:21;;;;;;;2.13;0.55;;;;;;;;;;5043505;28;20437;-79
2022/07/02 08:34:49;;;;;;;1.45;0.70;;;;;;;;;;5046547;28;20409;-79
2022/07/02 08:37:16;;;;;;;2.70;0.60;;;;;;;;;;5044404;28;20860;-78
2022/07/02 08:39:43;;;;;;;0.80;0.50;;;;;;;;;;5041338;28;20540;-78
2022/07/02 08:42:10;;;;;;;1.10;0.52;;;;;;;;;;5037066;28;20658;-78
2022/07/02 08:44:41;;;;;;;1.98;0.70;;;;;;;;;;5043947;28;20467;-78
2022/07/02 08:47:10;;;;;;;1.65;0.70;;;;;;;;;;5048924;28;20508;-78
2022/07/02 08:49:37;;;;;;;1.55;0.70;;;;;;;;;;5048664;28;20437;-78
2022/07/02 08:52:04;;;;;;;1.20;0.60;;;;;;;;;;5046879;28;20542;-77
2022/07/02 08:54:32;;;;;;;1.65;0.70;;;;;;;;;;5048330;28;20425;-78
2022/07/02 08:57:01;;;;;;;1.80;0.70;;;;;;;;;;5047856;28;20519;-77
2022/07/02 08:59:29;;;;;;;2.22;0.60;;;;;;;;;;5048845;28;20417;-78
2022/07/02 09:01:58;;;;;;;1.70;0.70;;;;;;;;;;5039607;28;20441;-77
2022/07/02 09:04:26;;;;;;;2.92;0.80;;;;;;;;;;5046844;28;20543;-77
2022/07/02 09:06:57;;;;;;;1.92;0.80;;;;;;;;;;5046979;28;20865;-77
2022/07/02 09:09:24;;;;;;;1.30;0.50;;;;;;;;;;5047157;28;20725;-77
2022/07/02 09:11:51;;;;;;;0.90;0.60;;;;;;;;;;5046635;28;20421;-76
2022/07/02 09:14:18;;;;;;;2.60;0.80;;;;;;;;;;5044693;28;20433;-77
2022/07/02 09:16:46;;;;;;;1.52;0.60;;;;;;;;;;5044800;28;20746;-76
2022/07/02 09:19:14;;;;;;;0.70;0.50;;;;;;;;;;5046860;28;20886;-76
2022/07/02 09:21:42;;;;;;;1.10;0.50;;;;;;;;;;5052077;28;20448;-78
2022/07/02 09:24:09;;;;;;;1.45;0.60;;;;;;;;;;5042066;28;20419;-78
2022/07/02 09:26:36;;;;;;;0.80;0.60;;;;;;;;;;5046892;28;20497;-77
2022/07/02 09:29:04;;;;;;;1.45;0.70;;;;;;;;;;5045272;28;20447;-76
2022/07/02 09:31:32;;;;;;;3.20;0.80;;;;;;;;;;5045961;28;20489;-77
2022/07/02 09:34:00;;;;;;;2.20;0.50;;;;;;;;;;5046475;28;20500;-77
2022/07/02 09:36:28;;;;;;;0.90;0.50;;;;;;;;;;5047309;28;20409;-77
2022/07/02 09:38:56;;;;;;;2.33;0.70;;;;;;;;;;5046784;28;20432;-77
2022/07/02 09:41:24;;;;;;;0.93;0.50;;;;;;;;;;5046813;28;20786;-77
2022/07/02 09:43:54;;;;;;;1.05;0.60;;;;;;;;;;5046592;28;20523;-79
2022/07/02 09:46:22;;;;;;;1.10;0.60;;;;;;;;;;5051620;28;20928;-79
2022/07/02 09:48:49;;;;;;;1.35;0.70;;;;;;;;;;5051957;28;20473;-78
2022/07/02 09:51:16;;;;;;;1.50;0.50;;;;;;;;;;5049077;28;20424;-78
2022/07/02 09:53:52;;;;;;;2.00;0.70;;;;;;;;;;5047146;28;20581;-78
2022/07/02 09:56:19;;;;;;;0.90;0.70;;;;;;;;;;5046213;28;20912;-78
2022/07/02 09:58:46;;;;;;;1.40;0.57;;;;;;;;;;5050718;28;20464;-78
2022/07/02 10:01:14;;;;;;;2.00;0.90;;;;;;;;;;5050570;28;20801;-78
2022/07/02 10:03:48;;;;;;;0.90;0.65;;;;;;;;;;5045798;28;20428;-78
2022/07/02 10:06:15;;;;;;;1.27;0.57;;;;;;;;;;5048209;28;20429;-78
2022/07/02 10:08:42;;;;;;;0.80;0.50;;;;;;;;;;5040149;28;20429;-79
2022/07/02 10:11:11;;;;;;;1.40;0.53;;;;;;;;;;5051709;28;20487;-79
2022/07/02 10:13:39;;;;;;;1.40;0.50;;;;;;;;;;5049857;28;20966;-79
2022/07/02 10:16:11;;;;;;;1.10;0.60;;;;;;;;;;5053722;28;20491;-79
2022/07/02 10:18:38;;;;;;;1.27;0.50;;;;;;;;;;5051633;28;20448;-77
2022/07/02 10:21:05;;;;;;;0.90;0.50;;;;;;;;;;5045788;28;20421;-79
2022/07/02 10:23:33;;;;;;;1.10;0.40;;;;;;;;;;5040937;28;20419;-77
2022/07/02 10:26:00;;;;;;;1.90;0.50;;;;;;;;;;5042967;28;20430;-77
2022/07/02 10:28:29;;;;;;;0.90;0.50;;;;;;;;;;5045539;28;20436;-77
2022/07/02 10:30:57;;;;;;;1.00;0.50;;;;;;;;;;5042313;28;20520;-77
2022/07/02 10:33:28;;;;;;;1.20;0.50;;;;;;;;;;5049511;28;20422;-79
2022/07/02 10:35:55;;;;;;;1.35;0.50;;;;;;;;;;5052910;28;20517;-78
2022/07/02 10:38:29;;;;;;;0.80;0.60;;;;;;;;;;5047444;28;20425;-78
2022/07/02 10:40:56;;;;;;;0.70;0.50;;;;;;;;;;5044830;28;20717;-77
2022/07/02 10:43:26;;;;;;;0.90;0.40;;;;;;;;;;5037277;28;20429;-78
2022/07/02 10:46:03;;;;;;;2.17;0.50;;;;;;;;;;5052783;28;20456;-79
2022/07/02 10:48:30;;;;;;;1.10;0.50;;;;;;;;;;5050802;28;20421;-79
2022/07/02 10:50:58;;;;;;;1.05;0.40;;;;;;;;;;5052002;28;20421;-79
2022/07/02 10:53:27;;;;;;;0.80;0.45;;;;;;;;;;5059489;28;20407;-79
2022/07/02 10:56:02;;;;;;;1.33;0.50;;;;;;;;;;5057587;28;20516;-79
2022/07/02 10:58:30;;;;;;;0.60;0.40;;;;;;;;;;5055383;28;20557;-78
2022/07/02 11:01:09;;;;;;;0.75;0.40;;;;;;;;;;5058466;28;20436;-79
2022/07/02 11:03:37;;;;;;;1.65;0.40;;;;;;;;;;5055962;28;20439;-79
2022/07/02 11:06:06;;;;;;;1.10;0.40;;;;;;;;;;5057286;28;20425;-78
2022/07/02 11:08:48;;;;;;;0.70;0.30;;;;;;;;;;5056561;28;20439;-78
2022/07/02 11:11:17;;;;;;;0.95;0.50;;;;;;;;;;5055893;28;20848;-79
2022/07/02 11:13:47;;;;;;;0.90;0.40;;;;;;;;;;5060282;28;20409;-79
2022/07/02 11:16:19;;;;;;;1.70;0.40;;;;;;;;;;5056213;28;20427;-78
2022/07/02 11:18:48;;;;;;;0.55;0.47;;;;;;;;;;5053520;28;20833;-79
2022/07/02 11:21:15;;;;;;;1.20;0.50;;;;;;;;;;5049741;28;20405;-78
2022/07/02 11:23:42;;;;;;;0.90;0.40;;;;;;;;;;5029191;28;20426;-77
2022/07/02 11:26:09;;;;;;;0.70;0.40;;;;;;;;;;5047004;28;20459;-78
2022/07/02 11:28:37;;;;;;;1.05;0.60;;;;;;;;;;5052548;28;20427;-80
2022/07/02 11:31:05;;;;;;;0.90;0.50;;;;;;;;;;5054160;28;20700;-78
2022/07/02 11:33:32;;;;;;;1.00;0.50;;;;;;;;;;5053934;28;20840;-78
2022/07/02 11:36:01;;;;;;;1.10;0.40;;;;;;;;;;5057516;28;20435;-79
2022/07/02 11:38:28;;;;;;;1.83;0.50;;;;;;;;;;5063491;28;20413;-80
2022/07/02 11:40:55;;;;;;;1.20;0.50;;;;;;;;;;5053167;28;20409;-79
2022/07/02 11:43:22;;;;;;;1.73;0.50;;;;;;;;;;5056182;28;20409;-79
2022/07/02 11:45:50;;;;;;;0.87;0.50;;;;;;;;;;5055887;28;20459;-79
2022/07/02 11:48:21;;;;;;;0.70;0.40;;;;;;;;;;5052070;28;20444;-79
2022/07/02 11:50:56;;;;;;;1.10;0.40;;;;;;;;;;5051959;28;20552;-79
2022/07/02 11:53:24;;;;;;;0.77;0.40;;;;;;;;;;5045815;28;20431;-79
2022/07/02 11:55:51;;;;;;;1.00;0.50;;;;;;;;;;5049878;28;20447;-78
2022/07/02 11:58:19;;;;;;;1.38;0.50;;;;;;;;;;5054853;28;20792;-78
2022/07/02 12:00:46;;;;;;;1.00;0.50;;;;;;;;;;5053800;28;20881;-78
2022/07/02 12:03:14;;;;;;;0.80;0.40;;;;;;;;;;5050418;28;20513;-79
2022/07/02 12:05:50;;;;;;;1.00;0.40;;;;;;;;;;5051713;28;20440;-79
2022/07/02 12:08:18;;;;;;;1.02;0.40;;;;;;;;;;5048777;28;20912;-79
2022/07/02 12:10:46;;;;;;;0.93;0.40;;;;;;;;;;5055446;28;20418;-79
2022/07/02 12:13:13;;;;;;;0.70;0.30;;;;;;;;;;5057279;28;20454;-79
2022/07/02 12:15:44;;;;;;;1.30;0.70;;;;;;;;;;5039058;28;20438;-78
2022/07/02 12:18:18;;;;;;;0.40;0.30;;;;;;;;;;5045026;28;20456;-78
2022/07/02 12:20:45;;;;;;;0.60;0.30;;;;;;;;;;5056123;28;20510;-78
2022/07/02 12:23:12;;;;;;;0.50;0.30;;;;;;;;;;5049138;28;20766;-77
2022/07/02 12:25:43;;;;;;;1.02;0.30;;;;;;;;;;5047480;28;20425;-78
2022/07/02 12:30:53;;;;;;;2.00;0.40;;;;;;;;;;5052619;28;20421;-77
2022/07/02 12:33:30;;;;;;;1.50;0.30;;;;;;;;;;5051303;28;20417;-78
2022/07/02 12:35:59;;;;;;;1.50;0.40;;;;;;;;;;5055462;28;20420;-77
2022/07/02 12:38:26;;;;;;;0.80;0.50;;;;;;;;;;5057702;28;20416;-78
2022/07/02 12:40:58;;;;;;;0.90;0.40;;;;;;;;;;5053650;28;20433;-78
2022/07/02 12:43:27;;;;;;;1.02;0.50;;;;;;;;;;5050126;28;20432;-77
2022/07/02 12:46:04;;;;;;;1.30;0.50;;;;;;;;;;5067503;28;20829;-78
2022/07/02 12:48:31;;;;;;;1.10;0.40;;;;;;;;;;5081702;28;20411;-77
2022/07/02 12:50:59;;;;;;;1.40;0.40;;;;;;;;;;5089587;22;20435;-70
2022/07/02 12:53:28;;;;;;;1.20;0.40;;;;;;;;;;5074840;28;20415;-71
2022/07/02 12:55:58;;;;;;;0.60;0.38;;;;;;;;;;5076789;28;20431;-70
2022/07/02 12:58:26;;;;;;;1.77;0.50;;;;;;;;;;5070626;28;20431;-70
2022/07/02 13:00:54;;;;;;;0.90;0.40;;;;;;;;;;5076755;28;20419;-71
2022/07/02 13:03:22;;;;;;;2.55;0.50;;;;;;;;;;5090712;28;20499;-71
2022/07/02 13:05:50;;;;;;;0.60;0.40;;;;;;;;;;5090240;28;20668;-69
2022/07/02 13:08:20;;;;;;;1.00;0.40;;;;;;;;;;5079386;28;20434;-70
2022/07/02 13:10:52;;;;;;;0.70;0.40;;;;;;;;;;5075787;28;20420;-70
2022/07/02 13:13:19;;;;;;;0.90;0.30;;;;;;;;;;5072020;28;21036;-70
2022/07/02 13:15:59;;;;;;;0.60;0.30;;;;;;;;;;5080038;28;20426;-69
2022/07/02 13:18:26;;;;;;;0.50;0.40;;;;;;;;;;5079794;28;20417;-69
2022/07/02 13:20:53;;;;;;;0.98;0.40;;;;;;;;;;5072173;28;20546;-70
2022/07/02 13:23:20;;;;;;;1.10;0.40;;;;;;;;;;5072634;28;20421;-70
2022/07/02 13:25:47;;;;;;;0.40;0.30;;;;;;;;;;5067938;28;20524;-70
2022/07/02 13:28:15;;;;;;;1.20;0.50;;;;;;;;;;5065391;28;20436;-71
2022/07/02 13:30:42;;;;;;;0.40;0.30;;;;;;;;;;5067230;28;20412;-69
2022/07/02 13:33:10;;;;;;;0.50;0.40;;;;;;;;;;5069664;28;20415;-71
2022/07/02 13:35:37;;;;;;;1.80;0.40;;;;;;;;;;5069493;28;20416;-70
2022/07/02 13:38:05;;;;;;;1.15;0.45;;;;;;;;;;5065125;28;20419;-71
2022/07/02 13:40:43;;;;;;;0.80;0.30;;;;;;;;;;5069272;28;20415;-70
2022/07/02 13:43:10;;;;;;;0.50;0.38;;;;;;;;;;5050597;28;20527;-69
2022/07/02 13:45:37;;;;;;;1.10;0.40;;;;;;;;;;5048224;28;20864;-69
2022/07/02 13:48:19;;;;;;;1.30;0.40;;;;;;;;;;5045830;28;20478;-72
2022/07/02 13:50:48;;;;;;;1.10;0.40;;;;;;;;;;5056013;28;20419;-70
2022/07/02 13:53:15;;;;;;;2.90;0.45;;;;;;;;;;5068942;28;20412;-70
2022/07/02 13:55:42;;;;;;;1.30;0.30;;;;;;;;;;5043088;28;20415;-70
2022/07/02 13:58:10;;;;;;;1.00;0.40;;;;;;;;;;5069513;28;20421;-70
2022/07/02 14:00:37;;;;;;;0.90;0.40;;;;;;;;;;5066103;28;20439;-70
2022/07/02 14:03:04;;;;;;;0.50;0.40;;;;;;;;;;5044231;28;20967;-70
2022/07/02 14:05:32;;;;;;;0.80;0.30;;;;;;;;;;5060384;28;20558;-71
2022/07/02 14:08:01;;;;;;;0.90;0.40;;;;;;;;;;5057775;28;20432;-71
2022/07/02 14:10:29;;;;;;;1.70;0.40;;;;;;;;;;5052818;28;20425;-71
2022/07/02 14:12:56;;;;;;;0.57;0.30;;;;;;;;;;5063250;28;20415;-70
2022/07/02 14:15:23;;;;;;;1.27;0.30;;;;;;;;;;5060088;28;20485;-71
2022/07/02 14:17:50;;;;;;;1.33;0.40;;;;;;;;;;5054357;28;20409;-70
2022/07/02 14:20:17;;;;;;;0.70;0.50;;;;;;;;;;5068469;28;20568;-71
2022/07/02 14:22:46;;;;;;;1.13;0.40;;;;;;;;;;5067428;28;20426;-70
2022/07/02 14:25:15;;;;;;;0.88;0.30;;;;;;;;;;5038101;28;20496;-70
2022/07/02 14:27:42;;;;;;;1.13;0.30;;;;;;;;;;5046618;28;20508;-71
2022/07/02 14:30:10;;;;;;;0.73;0.40;;;;;;;;;;5047989;28;20508;-70
2022/07/02 14:32:37;;;;;;;1.25;0.40;;;;;;;;;;5048358;28;20467;-70
2022/07/02 14:35:04;;;;;;;0.80;0.32;;;;;;;;;;5048695;28;20435;-71
2022/07/02 14:37:32;;;;;;;0.60;0.40;;;;;;;;;;5048174;28;20417;-71
2022/07/02 14:39:59;;;;;;;0.60;0.30;;;;;;;;;;5048105;28;20440;-71
2022/07/02 14:42:28;;;;;;;1.33;0.50;;;;;;;;;;5046566;28;21088;-71
2022/07/02 14:44:55;;;;;;;0.57;0.40;;;;;;;;;;5046960;28;20446;-70
2022/07/02 14:47:22;;;;;;;0.70;0.40;;;;;;;;;;5046469;28;20460;-71
2022/07/02 14:49:49;;;;;;;0.63;0.40;;;;;;;;;;5042423;28;20440;-71
2022/07/02 14:52:16;;;;;;;0.63;0.30;;;;;;;;;;5045270;28;20427;-69
2022/07/02 14:54:43;;;;;;;0.93;0.38;;;;;;;;;;5048149;28;20509;-71
2022/07/02 14:57:11;;;;;;;0.80;0.40;;;;;;;;;;5047985;28;20428;-71